Time;durP1;ratioP1;P1;durP2;ratioP2;P2;SDS_P1;SDS_P2;PMS_P1;PMS_P2;Temp;Humidity;BMP_temperature;BMP_pressure;BME280_temperature;BME280_humidity;BME280_pressure;Samples;Min_cycle;Max_cycle;Signal;HPM_P1;HPM_P2
2023/08/25 00:01:36;;;;;;;9.50;5.00;;;24.00;99.90;;;;;;4159398;28;20206;-76
2023/08/25 00:03:39;;;;;;;6.37;3.87;;;24.00;99.90;;;;;;4159167;28;20206;-76
2023/08/25 00:05:41;;;;;;;7.80;4.30;;;23.90;99.90;;;;;;4151600;28;20687;-76
2023/08/25 00:07:43;;;;;;;6.73;4.20;;;23.90;99.90;;;;;;4157236;28;20207;-76
2023/08/25 00:09:45;;;;;;;6.83;4.17;;;23.90;99.90;;;;;;4157563;28;20272;-76
2023/08/25 00:11:47;;;;;;;9.10;4.43;;;23.90;99.90;;;;;;4161730;28;20214;-76
2023/08/25 00:13:49;;;;;;;5.37;3.93;;;23.80;99.90;;;;;;4155184;28;20254;-76
2023/08/25 00:15:51;;;;;;;7.03;4.23;;;23.80;99.90;;;;;;4157222;28;20634;-76
2023/08/25 00:17:54;;;;;;;6.07;3.87;;;23.80;99.90;;;;;;4152689;28;20222;-76
2023/08/25 00:19:57;;;;;;;5.53;4.10;;;23.70;99.90;;;;;;4152767;28;20220;-76
2023/08/25 00:21:59;;;;;;;5.80;4.60;;;23.70;99.90;;;;;;4154760;28;20203;-76
2023/08/25 00:24:01;;;;;;;6.00;3.80;;;23.70;99.90;;;;;;4153442;28;20605;-76
2023/08/25 00:26:03;;;;;;;6.87;4.17;;;23.60;99.90;;;;;;4153734;28;20590;-76
2023/08/25 00:28:06;;;;;;;6.37;4.50;;;23.60;99.90;;;;;;4156457;28;20294;-76
2023/08/25 00:30:10;;;;;;;7.07;4.60;;;23.60;99.90;;;;;;4153718;28;20224;-76
2023/08/25 00:32:12;;;;;;;6.73;4.10;;;23.50;99.90;;;;;;4149183;28;20261;-76
2023/08/25 00:34:14;;;;;;;6.00;4.17;;;23.50;99.90;;;;;;4152416;28;20207;-76
2023/08/25 00:36:19;;;;;;;6.90;4.33;;;23.50;99.90;;;;;;4155126;28;20277;-76
2023/08/25 00:38:20;;;;;;;5.17;4.20;;;23.40;99.90;;;;;;4154107;28;20210;-76
2023/08/25 00:40:22;;;;;;;6.77;4.43;;;23.30;99.90;;;;;;4161059;28;20309;-76
2023/08/25 00:42:24;;;;;;;7.47;4.57;;;23.30;99.90;;;;;;4150698;28;20212;-76
2023/08/25 00:44:26;;;;;;;9.00;4.80;;;23.20;99.90;;;;;;4150523;28;20204;-76
2023/08/25 00:46:27;;;;;;;10.53;4.50;;;23.20;99.90;;;;;;4154889;28;20273;-76
2023/08/25 00:48:29;;;;;;;9.23;4.93;;;23.10;99.90;;;;;;4154377;28;20661;-77
2023/08/25 00:50:31;;;;;;;9.13;4.80;;;23.10;99.90;;;;;;4156129;28;20257;-77
2023/08/25 00:52:35;;;;;;;6.57;5.10;;;23.00;99.90;;;;;;4152474;28;20583;-77
2023/08/25 00:54:38;;;;;;;9.00;4.77;;;23.00;99.90;;;;;;4154622;28;20621;-77
2023/08/25 00:56:41;;;;;;;11.30;4.70;;;23.00;99.90;;;;;;4153828;28;20258;-77
2023/08/25 00:58:42;;;;;;;6.90;4.77;;;22.90;99.90;;;;;;4135813;28;20238;-77
2023/08/25 01:00:45;;;;;;;8.60;4.47;;;22.90;99.90;;;;;;4157630;28;20253;-77
2023/08/25 01:02:47;;;;;;;7.43;5.27;;;22.80;99.90;;;;;;4162831;28;20274;-77
2023/08/25 01:04:49;;;;;;;8.00;5.60;;;22.80;99.90;;;;;;4159778;28;20215;-77
2023/08/25 01:06:51;;;;;;;7.13;4.53;;;22.70;99.90;;;;;;4157757;28;20661;-77
2023/08/25 01:08:54;;;;;;;10.27;5.40;;;22.70;99.90;;;;;;4158099;28;20589;-77
2023/08/25 01:11:07;;;;;;;10.90;5.60;;;22.70;99.90;;;;;;4158595;28;20268;-77
2023/08/25 01:13:16;;;;;;;8.30;5.40;;;22.60;99.90;;;;;;4158103;28;20210;-77
2023/08/25 01:15:24;;;;;;;8.23;5.57;;;22.50;99.90;;;;;;4158108;28;20290;-77
2023/08/25 01:17:35;;;;;;;6.97;5.77;;;22.50;99.90;;;;;;4162680;28;20210;-77
2023/08/25 01:19:50;;;;;;;11.03;6.30;;;22.40;99.90;;;;;;4157659;28;20230;-77
2023/08/25 01:21:55;;;;;;;11.27;6.13;;;22.40;99.90;;;;;;4154513;28;20719;-77
2023/08/25 01:24:09;;;;;;;8.73;5.20;;;22.30;99.90;;;;;;4160075;28;20669;-77
2023/08/25 01:26:13;;;;;;;8.27;5.30;;;22.30;99.90;;;;;;4153717;28;20203;-77
2023/08/25 01:28:15;;;;;;;7.53;5.23;;;22.20;99.90;;;;;;4161053;28;20202;-77
2023/08/25 01:30:16;;;;;;;7.93;5.90;;;22.10;99.90;;;;;;4157402;28;20230;-77
2023/08/25 01:32:19;;;;;;;9.77;6.20;;;22.10;99.90;;;;;;4152659;28;20230;-77
2023/08/25 01:34:21;;;;;;;8.40;6.20;;;22.00;99.90;;;;;;4153621;28;20215;-77
2023/08/25 01:36:33;;;;;;;9.30;6.23;;;22.00;99.90;;;;;;4149644;28;20846;-77
2023/08/25 01:38:43;;;;;;;11.30;5.60;;;21.90;99.90;;;;;;4159904;28;20675;-77
2023/08/25 01:40:52;;;;;;;11.03;6.40;;;21.90;99.90;;;;;;4153504;28;20230;-77
2023/08/25 01:42:56;;;;;;;8.83;6.63;;;21.80;99.90;;;;;;4158029;28;20231;-77
2023/08/25 01:44:58;;;;;;;11.90;6.00;;;21.80;99.90;;;;;;4159004;28;20214;-77
2023/08/25 01:47:02;;;;;;;8.43;6.03;;;21.70;99.90;;;;;;4159729;28;20250;-77
2023/08/25 01:49:07;;;;;;;12.57;5.00;;;21.70;99.90;;;;;;4153201;28;20207;-77
2023/08/25 01:51:08;;;;;;;8.53;5.83;;;21.60;99.90;;;;;;4159002;28;20217;-77
2023/08/25 01:53:11;;;;;;;7.83;5.87;;;21.60;99.90;;;;;;4161125;28;20668;-76
2023/08/25 01:55:12;;;;;;;9.67;5.93;;;21.60;99.90;;;;;;4156770;28;20209;-77
2023/08/25 01:57:14;;;;;;;9.17;6.07;;;21.50;99.90;;;;;;4158040;28;20229;-77
2023/08/25 01:59:17;;;;;;;9.37;5.90;;;21.50;99.90;;;;;;4156314;28;20267;-77
2023/08/25 02:01:19;;;;;;;8.33;6.00;;;21.50;99.90;;;;;;4146470;28;20214;-78
2023/08/25 02:03:21;;;;;;;10.77;5.47;;;21.50;99.90;;;;;;4156802;28;20252;-77
2023/08/25 02:05:23;;;;;;;8.60;5.33;;;21.40;99.90;;;;;;4155308;28;20242;-77
2023/08/25 02:07:25;;;;;;;8.47;5.53;;;21.40;99.90;;;;;;4159242;28;20252;-77
2023/08/25 02:09:27;;;;;;;8.43;5.57;;;21.30;99.90;;;;;;4159720;28;20338;-77
2023/08/25 02:11:29;;;;;;;8.23;4.50;;;21.30;99.90;;;;;;4154605;28;20680;-77
2023/08/25 02:13:31;;;;;;;13.63;4.97;;;21.30;99.90;;;;;;4157426;28;20292;-77
2023/08/25 02:15:34;;;;;;;6.83;4.63;;;21.20;99.90;;;;;;4156564;28;20785;-77
2023/08/25 02:17:36;;;;;;;7.63;4.83;;;21.20;99.90;;;;;;4158657;28;20602;-77
2023/08/25 02:19:38;;;;;;;8.70;4.67;;;21.20;99.90;;;;;;4152028;28;20227;-77
2023/08/25 02:21:40;;;;;;;8.70;4.80;;;21.10;99.90;;;;;;4157747;28;20221;-77
2023/08/25 02:23:41;;;;;;;7.13;4.63;;;21.10;99.90;;;;;;4157407;28;20705;-77
2023/08/25 02:25:43;;;;;;;6.50;4.33;;;21.10;99.90;;;;;;4156654;28;20212;-77
2023/08/25 02:27:45;;;;;;;9.73;4.57;;;21.10;99.90;;;;;;4152644;28;20214;-77
2023/08/25 02:29:47;;;;;;;10.27;5.13;;;21.10;99.90;;;;;;4151684;28;21130;-77
2023/08/25 02:31:50;;;;;;;10.37;4.97;;;21.10;99.90;;;;;;4158261;28;20201;-77
2023/08/25 02:33:52;;;;;;;7.63;4.90;;;21.10;99.90;;;;;;4153267;28;20819;-77
2023/08/25 02:35:54;;;;;;;11.93;4.60;;;21.10;99.90;;;;;;4153298;28;20200;-77
2023/08/25 02:38:00;;;;;;;8.37;5.07;;;21.00;99.90;;;;;;4157589;28;20249;-77
2023/08/25 02:40:04;;;;;;;9.17;4.67;;;21.00;99.90;;;;;;4160028;28;20255;-77
2023/08/25 02:42:06;;;;;;;7.27;4.93;;;21.00;99.90;;;;;;4153095;28;20208;-77
2023/08/25 02:44:08;;;;;;;9.40;4.43;;;21.00;99.90;;;;;;4158516;28;20625;-77
2023/08/25 02:46:10;;;;;;;8.97;4.40;;;21.00;99.90;;;;;;4153961;28;20269;-77
2023/08/25 02:48:13;;;;;;;7.40;4.70;;;21.00;99.90;;;;;;4153464;28;20218;-77
2023/08/25 02:50:15;;;;;;;9.37;4.70;;;21.00;99.90;;;;;;4154478;28;20227;-77
2023/08/25 02:52:17;;;;;;;8.23;4.63;;;21.00;99.90;;;;;;4151555;28;20281;-77
2023/08/25 02:54:20;;;;;;;6.80;4.63;;;20.90;99.90;;;;;;4141703;28;20214;-77
2023/08/25 02:56:22;;;;;;;9.40;4.90;;;20.90;99.90;;;;;;4164353;28;20226;-77
2023/08/25 02:58:24;;;;;;;6.67;5.00;;;20.90;99.90;;;;;;4156435;28;20222;-78
2023/08/25 03:00:26;;;;;;;6.63;4.50;;;20.90;99.90;;;;;;4156760;28;20232;-77
2023/08/25 03:02:26;;;;;;;7.93;5.07;;;20.90;99.90;;;;;;4156403;28;20208;-77
2023/08/25 03:04:30;;;;;;;8.43;5.00;;;20.90;99.90;;;;;;4158321;28;20672;-77
2023/08/25 03:06:32;;;;;;;7.67;5.20;;;20.90;99.90;;;;;;4157209;28;20268;-77
2023/08/25 03:08:33;;;;;;;9.40;5.70;;;20.90;99.90;;;;;;4153723;28;20223;-77
2023/08/25 03:10:35;;;;;;;10.77;5.83;;;20.80;99.90;;;;;;4159682;28;20284;-77
2023/08/25 03:12:38;;;;;;;14.93;5.07;;;20.80;99.90;;;;;;4160045;28;20216;-77
2023/08/25 03:14:39;;;;;;;7.90;4.87;;;20.80;99.90;;;;;;4155984;28;20203;-77
2023/08/25 03:16:41;;;;;;;15.17;4.80;;;20.80;99.90;;;;;;4153187;28;20226;-77
2023/08/25 03:18:43;;;;;;;6.83;4.40;;;20.80;99.90;;;;;;4154937;28;20265;-77
2023/08/25 03:20:50;;;;;;;9.63;4.83;;;20.80;99.90;;;;;;4154391;28;20224;-77
2023/08/25 03:22:54;;;;;;;5.60;4.03;;;20.80;99.90;;;;;;4155878;28;20280;-77
2023/08/25 03:24:55;;;;;;;6.13;4.43;;;20.70;99.90;;;;;;4153427;28;20271;-78
2023/08/25 03:26:58;;;;;;;5.23;4.70;;;20.80;99.90;;;;;;4154421;28;20260;-77
2023/08/25 03:29:00;;;;;;;7.30;4.53;;;20.80;99.90;;;;;;4159111;28;20214;-77
2023/08/25 03:31:02;;;;;;;7.43;4.57;;;20.70;99.90;;;;;;4156090;28;20212;-77
2023/08/25 03:33:04;;;;;;;7.97;5.23;;;20.70;99.90;;;;;;4157539;28;20216;-77
2023/08/25 03:35:08;;;;;;;10.60;4.60;;;20.70;99.90;;;;;;4152117;28;20215;-77
2023/08/25 03:37:12;;;;;;;6.90;4.50;;;20.70;99.90;;;;;;4148726;28;20312;-77
2023/08/25 03:39:14;;;;;;;5.40;4.20;;;20.70;99.90;;;;;;4151248;28;20244;-77
2023/08/25 03:41:16;;;;;;;7.77;5.20;;;20.70;99.90;;;;;;4158288;28;20211;-77
2023/08/25 03:43:18;;;;;;;10.20;5.50;;;20.70;99.90;;;;;;4158275;28;20208;-77
2023/08/25 03:45:19;;;;;;;7.57;5.03;;;20.70;99.90;;;;;;4154410;28;20215;-77
2023/08/25 03:47:21;;;;;;;5.63;4.10;;;20.70;99.90;;;;;;4160698;28;20596;-77
2023/08/25 03:49:27;;;;;;;5.23;3.93;;;20.70;99.90;;;;;;4161790;28;20226;-77
2023/08/25 03:51:29;;;;;;;6.93;4.33;;;20.70;99.90;;;;;;4157009;28;20214;-77
2023/08/25 03:53:33;;;;;;;6.90;4.37;;;20.70;99.90;;;;;;4152573;28;20205;-76
2023/08/25 03:55:35;;;;;;;6.87;4.20;;;20.70;99.90;;;;;;4157737;28;20269;-76
2023/08/25 03:57:37;;;;;;;6.13;4.20;;;20.70;99.90;;;;;;4150719;28;20229;-75
2023/08/25 03:59:39;;;;;;;9.33;4.20;;;20.60;99.90;;;;;;4154228;28;20228;-75
2023/08/25 04:01:41;;;;;;;7.63;4.40;;;20.60;99.90;;;;;;4153960;28;20615;-75
2023/08/25 04:03:43;;;;;;;6.53;3.93;;;20.60;99.90;;;;;;4158707;28;20211;-75
2023/08/25 04:05:44;;;;;;;6.87;4.47;;;20.60;99.90;;;;;;4160457;28;20203;-75
2023/08/25 04:07:46;;;;;;;6.47;4.87;;;20.60;99.90;;;;;;4157540;28;20257;-75
2023/08/25 04:09:49;;;;;;;10.83;5.67;;;20.60;99.90;;;;;;4151432;28;20231;-75
2023/08/25 04:11:53;;;;;;;10.43;5.53;;;20.60;99.90;;;;;;4156430;28;20294;-75
2023/08/25 04:13:55;;;;;;;9.97;6.60;;;20.60;99.90;;;;;;4152704;28;20213;-76
2023/08/25 04:15:57;;;;;;;11.13;7.20;;;20.60;99.90;;;;;;4155286;28;20249;-75
2023/08/25 04:17:59;;;;;;;8.20;5.53;;;20.60;99.90;;;;;;4135566;28;20221;-75
2023/08/25 04:20:02;;;;;;;7.90;4.33;;;20.60;99.90;;;;;;4156925;28;20230;-75
2023/08/25 04:22:04;;;;;;;7.17;4.27;;;20.60;99.90;;;;;;4151819;28;20252;-75
2023/08/25 04:24:06;;;;;;;4.17;3.73;;;20.60;99.90;;;;;;4157570;28;20668;-76
2023/08/25 04:26:09;;;;;;;7.67;3.80;;;20.60;99.90;;;;;;4155113;28;20739;-76
2023/08/25 04:28:11;;;;;;;4.73;3.90;;;20.60;99.90;;;;;;4158358;28;20237;-76
2023/08/25 04:30:13;;;;;;;7.13;5.07;;;20.60;99.90;;;;;;4152817;28;20225;-76
2023/08/25 04:32:15;;;;;;;7.83;5.37;;;20.60;99.90;;;;;;4157851;28;20215;-76
2023/08/25 04:34:17;;;;;;;11.60;7.50;;;20.60;99.90;;;;;;4160212;28;20213;-76
2023/08/25 04:36:19;;;;;;;6.40;5.10;;;20.60;99.90;;;;;;4164237;28;20200;-76
2023/08/25 04:38:21;;;;;;;7.23;4.73;;;20.60;99.90;;;;;;4162177;28;20229;-76
2023/08/25 04:40:22;;;;;;;7.57;4.30;;;20.60;99.90;;;;;;4161148;28;20668;-76
2023/08/25 04:42:28;;;;;;;6.80;4.73;;;20.60;99.90;;;;;;4164149;28;20221;-76
2023/08/25 04:44:30;;;;;;;7.23;4.40;;;20.60;99.90;;;;;;4162198;28;20209;-74
2023/08/25 04:46:32;;;;;;;6.33;4.83;;;20.60;99.90;;;;;;4160357;28;20949;-75
2023/08/25 04:48:34;;;;;;;6.93;4.20;;;20.60;99.90;;;;;;4158024;28;20580;-77
2023/08/25 04:50:36;;;;;;;7.70;4.70;;;20.60;99.90;;;;;;4163527;28;20227;-78
2023/08/25 04:52:38;;;;;;;6.83;4.30;;;20.60;99.90;;;;;;4157573;28;20645;-80
2023/08/25 04:54:40;;;;;;;9.10;4.80;;;20.50;99.90;;;;;;4162814;28;20216;-74
2023/08/25 04:56:42;;;;;;;8.23;4.60;;;20.50;99.90;;;;;;4159768;28;20837;-76
2023/08/25 04:58:45;;;;;;;8.13;5.10;;;20.50;99.90;;;;;;4160776;28;20282;-76
2023/08/25 05:00:50;;;;;;;6.20;4.60;;;20.50;99.90;;;;;;4155090;28;20250;-75
2023/08/25 05:02:52;;;;;;;8.60;5.20;;;20.50;99.90;;;;;;4159799;28;20672;-73
2023/08/25 05:04:53;;;;;;;12.50;5.30;;;20.50;99.90;;;;;;4157173;28;20894;-73
2023/08/25 05:06:55;;;;;;;6.57;4.67;;;20.50;99.90;;;;;;4156404;28;20258;-73
2023/08/25 05:08:57;;;;;;;6.93;5.00;;;20.50;99.90;;;;;;4155425;28;20203;-73
2023/08/25 05:10:59;;;;;;;7.30;4.67;;;20.50;99.90;;;;;;4161177;28;20719;-73
2023/08/25 05:13:01;;;;;;;8.67;5.33;;;20.50;99.90;;;;;;4159050;28;20222;-73
2023/08/25 05:15:05;;;;;;;8.67;5.60;;;20.50;99.90;;;;;;4156535;28;20208;-73
2023/08/25 05:17:07;;;;;;;6.53;5.03;;;20.50;99.90;;;;;;4153038;28;20630;-73
2023/08/25 05:19:11;;;;;;;8.63;5.20;;;20.60;99.90;;;;;;4158938;28;21136;-74
2023/08/25 05:21:14;;;;;;;11.30;5.20;;;20.60;99.90;;;;;;4159176;28;20211;-73
2023/08/25 05:23:16;;;;;;;8.43;5.27;;;20.60;99.90;;;;;;4158306;28;20233;-73
2023/08/25 05:25:20;;;;;;;8.17;5.30;;;20.60;99.90;;;;;;4154762;28;20220;-75
2023/08/25 05:27:22;;;;;;;9.60;6.37;;;20.70;99.90;;;;;;4160882;28;20226;-74
2023/08/25 05:29:25;;;;;;;11.10;7.03;;;20.70;99.90;;;;;;4155720;28;20240;-73
2023/08/25 05:31:28;;;;;;;6.70;5.07;;;20.70;99.90;;;;;;4157458;28;20213;-72
2023/08/25 05:33:30;;;;;;;9.10;5.53;;;20.70;99.90;;;;;;4159123;28;20573;-73
2023/08/25 05:35:32;;;;;;;9.77;5.63;;;20.80;99.90;;;;;;4158736;28;20203;-72
2023/08/25 05:37:35;;;;;;;9.10;5.63;;;20.80;99.90;;;;;;4156227;28;20282;-73
2023/08/25 05:39:37;;;;;;;9.40;5.60;;;20.80;99.90;;;;;;4158589;28;20229;-72
2023/08/25 05:41:39;;;;;;;9.20;5.90;;;20.90;99.90;;;;;;4155330;28;20213;-74
2023/08/25 05:43:41;;;;;;;8.00;5.53;;;20.90;99.90;;;;;;4156525;28;20207;-72
2023/08/25 05:45:43;;;;;;;11.70;6.53;;;20.90;99.90;;;;;;4159267;28;20268;-75
2023/08/25 05:47:46;;;;;;;10.47;5.40;;;21.00;99.90;;;;;;4158277;28;20209;-75
2023/08/25 05:49:47;;;;;;;9.97;5.43;;;21.00;99.90;;;;;;4152407;28;20270;-75
2023/08/25 05:51:51;;;;;;;8.23;5.50;;;21.00;99.90;;;;;;4155237;28;20201;-75
2023/08/25 05:53:53;;;;;;;9.30;5.93;;;21.10;99.90;;;;;;4156611;28;20212;-75
2023/08/25 05:55:56;;;;;;;11.97;5.40;;;21.10;99.90;;;;;;4152229;28;20210;-76
2023/08/25 05:57:58;;;;;;;7.60;5.70;;;21.20;99.90;;;;;;4156746;28;20230;-76
2023/08/25 06:00:00;;;;;;;9.37;4.80;;;21.20;99.90;;;;;;4154454;28;20343;-76
2023/08/25 06:02:02;;;;;;;9.90;5.17;;;21.30;99.90;;;;;;4157316;28;20211;-76
2023/08/25 06:04:06;;;;;;;9.60;4.87;;;21.30;99.90;;;;;;4158546;28;20263;-76
2023/08/25 06:06:09;;;;;;;8.67;5.70;;;21.40;99.90;;;;;;4151248;28;20206;-76
2023/08/25 06:08:11;;;;;;;9.80;4.80;;;21.40;99.90;;;;;;4158825;28;20230;-76
2023/08/25 06:10:13;;;;;;;10.10;5.00;;;21.40;99.90;;;;;;4160606;28;20724;-76
2023/08/25 06:12:15;;;;;;;8.97;4.83;;;21.50;99.90;;;;;;4159477;28;20217;-76
2023/08/25 06:14:18;;;;;;;11.17;5.27;;;21.50;99.90;;;;;;4156711;28;20677;-76
2023/08/25 06:16:20;;;;;;;7.77;4.73;;;21.60;99.90;;;;;;4155313;28;20211;-76
2023/08/25 06:18:22;;;;;;;7.70;5.30;;;21.60;99.90;;;;;;4161524;28;20218;-76
2023/08/25 06:20:25;;;;;;;7.97;4.90;;;21.60;99.90;;;;;;4161238;28;20238;-76
2023/08/25 06:22:27;;;;;;;8.43;4.83;;;21.70;99.90;;;;;;4159536;28;20218;-76
2023/08/25 06:24:29;;;;;;;11.00;5.67;;;21.70;99.90;;;;;;4161240;28;20829;-76
2023/08/25 06:26:30;;;;;;;6.20;4.87;;;21.80;99.90;;;;;;4153231;28;20290;-76
2023/08/25 06:28:33;;;;;;;8.00;5.00;;;21.80;99.90;;;;;;4161460;28;20301;-76
2023/08/25 06:30:35;;;;;;;11.57;5.40;;;21.80;99.90;;;;;;4159148;28;20632;-76
2023/08/25 06:32:37;;;;;;;8.60;5.13;;;21.90;99.90;;;;;;4158535;28;20216;-76
2023/08/25 06:34:39;;;;;;;10.67;6.90;;;21.90;99.90;;;;;;4161306;28;20277;-76
2023/08/25 06:36:42;;;;;;;9.43;6.60;;;21.90;99.90;;;;;;4160749;28;20268;-73
2023/08/25 06:38:44;;;;;;;9.30;6.20;;;22.00;99.90;;;;;;4153770;28;20223;-76
2023/08/25 06:40:47;;;;;;;11.00;5.83;;;22.10;99.90;;;;;;4143281;28;20232;-76
2023/08/25 06:42:49;;;;;;;8.20;5.73;;;22.10;99.90;;;;;;4158394;28;20206;-76
2023/08/25 06:44:51;;;;;;;8.13;5.70;;;22.20;99.90;;;;;;4160544;28;20261;-76
2023/08/25 06:46:53;;;;;;;9.27;6.13;;;22.20;99.90;;;;;;4156405;28;20278;-76
2023/08/25 06:48:55;;;;;;;13.93;6.10;;;22.20;99.90;;;;;;4158951;28;20286;-74
2023/08/25 06:50:57;;;;;;;9.97;6.33;;;22.30;99.90;;;;;;4153179;28;20211;-74
2023/08/25 06:53:00;;;;;;;14.13;6.00;;;22.40;99.90;;;;;;4154451;28;20215;-75
2023/08/25 06:55:02;;;;;;;15.23;5.97;;;22.40;99.90;;;;;;4156827;28;20207;-76
2023/08/25 06:57:04;;;;;;;7.00;5.73;;;22.50;99.90;;;;;;4157314;28;20207;-76
2023/08/25 06:59:05;;;;;;;10.47;5.27;;;22.50;99.90;;;;;;4157387;28;20235;-76
2023/08/25 07:01:07;;;;;;;8.63;5.63;;;22.60;99.90;;;;;;4161785;28;20772;-76
2023/08/25 07:03:09;;;;;;;9.17;5.43;;;22.60;99.90;;;;;;4160097;28;20212;-76
2023/08/25 07:05:11;;;;;;;11.07;5.07;;;22.70;99.90;;;;;;4152850;28;20203;-76
2023/08/25 07:07:12;;;;;;;6.87;4.93;;;22.70;99.90;;;;;;4157469;28;20286;-79
2023/08/25 07:09:16;;;;;;;7.67;5.53;;;22.70;99.90;;;;;;4155599;28;20672;-76
2023/08/25 07:11:22;;;;;;;9.67;5.60;;;22.80;99.90;;;;;;4161536;28;20249;-76
2023/08/25 07:13:24;;;;;;;8.40;5.30;;;22.80;99.90;;;;;;4153651;28;20699;-76
2023/08/25 07:15:26;;;;;;;7.30;5.17;;;22.90;99.90;;;;;;4155467;28;20214;-76
2023/08/25 07:17:29;;;;;;;8.90;4.77;;;23.00;99.90;;;;;;4157996;28;20858;-76
2023/08/25 07:19:31;;;;;;;6.93;4.43;;;23.10;99.90;;;;;;4159763;28;20703;-76
2023/08/25 07:21:33;;;;;;;7.70;5.27;;;23.10;99.90;;;;;;4137868;28;20927;-76
2023/08/25 07:23:35;;;;;;;6.90;5.10;;;23.20;99.90;;;;;;4157234;28;20203;-76
2023/08/25 07:25:43;;;;;;;8.10;5.03;;;23.20;99.90;;;;;;4158439;28;20207;-76
2023/08/25 07:27:45;;;;;;;7.97;5.07;;;23.30;99.90;;;;;;4153582;28;20199;-76
2023/08/25 07:29:47;;;;;;;6.50;4.43;;;23.30;99.90;;;;;;4157163;28;20782;-76
2023/08/25 07:31:49;;;;;;;6.03;4.63;;;23.40;99.90;;;;;;4156257;28;20245;-77
2023/08/25 07:33:49;;;;;;;12.03;5.10;;;23.50;99.90;;;;;;4156705;28;20215;-76
2023/08/25 07:35:52;;;;;;;8.37;4.80;;;23.50;99.90;;;;;;4156218;28;20245;-76
2023/08/25 07:37:54;;;;;;;7.80;4.50;;;23.60;99.90;;;;;;4153826;28;20234;-76
2023/08/25 07:39:56;;;;;;;11.40;4.43;;;23.70;99.90;;;;;;4156730;28;20635;-76
2023/08/25 07:41:59;;;;;;;7.47;4.30;;;23.80;99.90;;;;;;4159968;28;20203;-76
2023/08/25 07:44:02;;;;;;;6.73;4.37;;;23.80;99.90;;;;;;4157745;28;20261;-76
2023/08/25 07:46:04;;;;;;;8.60;4.10;;;23.90;99.90;;;;;;4155312;28;20273;-73
2023/08/25 07:48:07;;;;;;;8.77;4.60;;;24.00;99.90;;;;;;4157022;28;20225;-74
2023/08/25 07:50:09;;;;;;;6.00;4.47;;;24.00;99.90;;;;;;4159670;28;20314;-74
2023/08/25 07:52:11;;;;;;;6.93;4.27;;;24.10;99.90;;;;;;4161524;28;20207;-74
2023/08/25 07:54:13;;;;;;;8.00;4.27;;;24.20;99.90;;;;;;4157960;28;20262;-74
2023/08/25 07:56:16;;;;;;;7.30;4.27;;;24.30;99.90;;;;;;4159667;28;20207;-74
2023/08/25 07:58:21;;;;;;;6.70;3.90;;;24.30;99.90;;;;;;4157673;28;20326;-74
2023/08/25 08:00:23;;;;;;;6.30;3.80;;;24.40;99.90;;;;;;4155023;28;20227;-74
2023/08/25 08:02:25;;;;;;;8.03;3.80;;;24.50;99.90;;;;;;4152886;28;20211;-74
2023/08/25 08:04:30;;;;;;;6.30;3.87;;;24.60;99.90;;;;;;4160305;28;20677;-74
2023/08/25 08:06:32;;;;;;;7.63;4.07;;;24.60;99.90;;;;;;4157810;28;20572;-74
2023/08/25 08:08:33;;;;;;;5.93;3.53;;;24.80;99.90;;;;;;4154620;28;20211;-74
2023/08/25 08:10:35;;;;;;;7.47;4.37;;;24.90;99.90;;;;;;4160252;28;20219;-73
2023/08/25 08:12:36;;;;;;;5.60;4.07;;;25.00;99.90;;;;;;4137470;28;20277;-76
2023/08/25 08:14:40;;;;;;;5.17;3.70;;;25.00;99.90;;;;;;4153827;28;20200;-76
2023/08/25 08:16:42;;;;;;;6.03;3.97;;;25.10;99.90;;;;;;4155171;28;20207;-77
2023/08/25 08:18:44;;;;;;;6.47;4.30;;;25.20;99.90;;;;;;4152502;28;20238;-73
2023/08/25 08:20:46;;;;;;;4.87;3.67;;;25.20;99.90;;;;;;4151054;28;20677;-76
2023/08/25 08:22:48;;;;;;;7.10;3.90;;;25.30;99.90;;;;;;4154908;28;20569;-74
2023/08/25 08:24:50;;;;;;;6.10;4.23;;;25.40;99.90;;;;;;4147940;28;20216;-73
2023/08/25 08:26:52;;;;;;;8.10;4.10;;;25.40;99.90;;;;;;4152812;28;20272;-72
2023/08/25 08:28:54;;;;;;;5.60;3.83;;;25.40;99.90;;;;;;4148697;28;20234;-73
2023/08/25 08:30:58;;;;;;;6.50;3.80;;;25.40;99.90;;;;;;4153847;28;20273;-74
2023/08/25 08:33:00;;;;;;;6.43;4.13;;;25.40;99.90;;;;;;4157651;28;20246;-73
2023/08/25 08:35:06;;;;;;;7.43;4.10;;;25.40;99.90;;;;;;4155649;28;20208;-74
2023/08/25 08:37:07;;;;;;;7.03;4.17;;;25.40;99.90;;;;;;4157549;28;20203;-73
2023/08/25 08:39:09;;;;;;;5.03;4.00;;;25.40;99.90;;;;;;4156234;28;20231;-74
2023/08/25 08:41:12;;;;;;;6.30;4.00;;;25.40;99.90;;;;;;4153175;28;20209;-74
2023/08/25 08:43:15;;;;;;;6.73;4.30;;;25.50;99.90;;;;;;4154701;28;20266;-73
2023/08/25 08:45:18;;;;;;;4.93;3.77;;;25.60;99.90;;;;;;4154437;28;20268;-74
2023/08/25 08:47:22;;;;;;;6.33;3.83;;;25.60;99.90;;;;;;4156651;28;20605;-74
2023/08/25 08:49:26;;;;;;;10.13;4.30;;;25.70;99.90;;;;;;4158771;28;20231;-73
2023/08/25 08:51:30;;;;;;;9.80;4.13;;;25.80;99.90;;;;;;4153903;28;20287;-76
2023/08/25 08:53:32;;;;;;;7.27;3.70;;;25.90;99.90;;;;;;4156977;28;20224;-74
2023/08/25 08:55:35;;;;;;;3.93;3.53;;;26.00;99.90;;;;;;4153914;28;20236;-74
2023/08/25 08:57:36;;;;;;;5.10;3.77;;;26.10;99.90;;;;;;4150603;28;20545;-73
2023/08/25 08:59:37;;;;;;;5.50;4.10;;;26.10;99.90;;;;;;4152134;28;20280;-73
2023/08/25 09:01:40;;;;;;;7.70;4.10;;;26.20;99.90;;;;;;4151453;28;20285;-74
2023/08/25 09:03:47;;;;;;;7.43;4.10;;;26.30;99.90;;;;;;4156933;28;20230;-73
2023/08/25 09:05:51;;;;;;;5.43;3.53;;;26.30;99.90;;;;;;4156835;28;20235;-73
2023/08/25 09:07:58;;;;;;;12.30;4.50;;;26.30;99.90;;;;;;4153075;28;20231;-73
2023/08/25 09:10:01;;;;;;;7.07;3.67;;;26.40;99.90;;;;;;4151277;28;20223;-73
2023/08/25 09:12:03;;;;;;;7.10;4.00;;;26.50;99.90;;;;;;4154021;28;20200;-75
2023/08/25 09:14:07;;;;;;;8.37;4.13;;;26.50;99.90;;;;;;4160791;28;20203;-73
2023/08/25 09:16:13;;;;;;;5.00;3.93;;;26.70;99.90;;;;;;4159322;28;20551;-74
2023/08/25 09:18:14;;;;;;;8.00;3.83;;;26.70;99.90;;;;;;4154216;28;20808;-72
2023/08/25 09:20:17;;;;;;;9.87;4.03;;;26.80;99.90;;;;;;4162634;28;20296;-73
2023/08/25 09:22:20;;;;;;;9.30;4.07;;;26.80;99.90;;;;;;4167865;28;20689;-73
2023/08/25 09:24:22;;;;;;;6.50;3.73;;;26.90;99.90;;;;;;4159993;28;20239;-73
2023/08/25 09:26:25;;;;;;;5.57;3.57;;;26.90;99.90;;;;;;4162728;28;20215;-73
2023/08/25 09:28:27;;;;;;;6.43;3.83;;;26.90;99.90;;;;;;4156710;28;20214;-73
2023/08/25 09:30:35;;;;;;;6.27;3.47;;;26.90;99.90;;;;;;4162686;28;20234;-73
2023/08/25 09:32:38;;;;;;;5.93;3.30;;;26.90;99.90;;;;;;4158749;28;20210;-73
2023/08/25 09:34:40;;;;;;;5.17;3.40;;;26.80;99.90;;;;;;4157537;28;20261;-73
2023/08/25 09:36:54;;;;;;;5.87;3.90;;;26.90;99.90;;;;;;4156558;28;20216;-73
2023/08/25 09:38:55;;;;;;;5.80;3.63;;;26.90;99.90;;;;;;4159520;28;20212;-73
2023/08/25 09:40:58;;;;;;;6.23;3.73;;;26.90;99.90;;;;;;4158106;28;20207;-73
2023/08/25 09:43:01;;;;;;;6.50;3.90;;;27.00;99.90;;;;;;4158379;28;20222;-73
2023/08/25 09:45:04;;;;;;;8.33;3.80;;;27.10;99.90;;;;;;4156635;28;21075;-73
2023/08/25 09:47:06;;;;;;;9.53;3.70;;;27.10;99.90;;;;;;4158096;28;20836;-73
2023/08/25 09:49:08;;;;;;;5.00;3.60;;;27.10;99.90;;;;;;4157053;28;20203;-73
2023/08/25 09:51:11;;;;;;;7.57;4.00;;;27.20;99.90;;;;;;4159901;28;20207;-73
2023/08/25 09:53:14;;;;;;;7.50;3.90;;;27.20;99.90;;;;;;4160913;28;20269;-73
2023/08/25 09:55:17;;;;;;;7.30;3.72;;;27.20;99.90;;;;;;4158822;28;20211;-73
2023/08/25 09:57:19;;;;;;;4.20;3.60;;;27.20;99.90;;;;;;4157216;28;20218;-73
2023/08/25 09:59:22;;;;;;;4.97;3.42;;;27.20;99.90;;;;;;4157084;28;20223;-73
2023/08/25 10:01:24;;;;;;;6.55;3.67;;;27.20;99.90;;;;;;4156541;28;21177;-73
2023/08/25 10:03:27;;;;;;;5.35;3.45;;;27.20;99.90;;;;;;4154080;28;20219;-73
2023/08/25 10:05:30;;;;;;;4.18;3.20;;;27.10;99.90;;;;;;4156796;28;20207;-74
2023/08/25 10:07:34;;;;;;;4.13;3.72;;;27.10;99.90;;;;;;4154054;28;20311;-73
2023/08/25 10:09:37;;;;;;;5.83;3.97;;;27.10;99.90;;;;;;4156501;28;20215;-73
2023/08/25 10:11:41;;;;;;;5.27;3.70;;;27.10;99.90;;;;;;4151238;28;20278;-73
2023/08/25 10:13:45;;;;;;;4.55;3.55;;;27.10;99.90;;;;;;4153541;28;20218;-73
2023/08/25 10:15:48;;;;;;;6.07;3.70;;;27.10;99.90;;;;;;4154801;28;20211;-73
2023/08/25 10:17:53;;;;;;;5.43;3.60;;;27.20;99.90;;;;;;4158076;28;20207;-73
2023/08/25 10:19:58;;;;;;;8.10;4.00;;;27.30;99.90;;;;;;4155999;28;20890;-73
2023/08/25 10:22:01;;;;;;;6.60;3.55;;;27.30;99.90;;;;;;4152679;28;20893;-73
2023/08/25 10:24:03;;;;;;;6.75;3.72;;;27.40;99.90;;;;;;4156318;28;20878;-73
2023/08/25 10:26:07;;;;;;;5.90;3.65;;;27.40;99.90;;;;;;4155839;28;20912;-73
2023/08/25 10:28:10;;;;;;;7.70;3.70;;;27.40;99.90;;;;;;4161911;28;20206;-73
2023/08/25 10:30:14;;;;;;;7.63;3.70;;;27.40;99.90;;;;;;4156673;28;20219;-73
2023/08/25 10:32:15;;;;;;;7.50;3.65;;;27.40;99.90;;;;;;4158304;28;20241;-73
2023/08/25 10:34:34;;;;;;;7.90;3.35;;;27.40;99.90;;;;;;4159105;28;20211;-73
2023/08/25 10:36:42;;;;;;;5.25;3.45;;;27.40;99.90;;;;;;4157534;28;20605;-73
2023/08/25 10:39:03;;;;;;;8.63;3.83;;;27.30;99.90;;;;;;4153343;28;20203;-73